Tuxedo, Maryland
Current Conditions -  °F | °C
As of 4:50 AM on Friday 19 Dec 2014 (Local Time) from KCGS Reporting Station
Overcast Overcast  
Wind Chill: 31°   Ceiling: 8000
Heat Index: 36°   Visibility: 10mi
Dew Point: 25°   Wind: 6mph
Humidity: 65%   Direction: 310°NW
Pressure: 30.11"   Gusts: NA
Location:  38.9534°N, 76.9444°W
Report Text: KCGS 190950Z AUTO 31005KT 10SM BKN080 OVC100 02/M04 A3011 RMK AO1
Loading
Personal Weather Stations






























Interactive Weather Map New forecast layout! Learn more

10-Day Weather Forecast

Advertisements
Track Severe Weather on mobile